Richibucto, Canada
Current Conditions -  °F | °C
As of 4:00 PM on Tuesday 27 Jan 2015 (Local Time) from CYQM Reporting Station
Light Snow Light Snow  
Wind Chill: -3°   Ceiling: 200
Heat Index: 18°   Visibility: 0.12mi
Dew Point: 14°   Wind: 35mph
Humidity: 86%   Direction: 50°NE
Pressure: 29.74"   Gusts: NA
Location:  46.68°N, 64.87°W
Report Text: CYQM 272000Z 05030KT 1/8SM R06/2600V4000FT/D R29/3000V4000FT/U -SN +BLSN VV002 M08/M10 A2974 RMK BLSN8 /S06/ WND ESTD SLP076
Loading
Personal Weather Stations






























Interactive Weather Map New forecast layout! Learn more

10-Day Weather Forecast

Advertisements
Track Severe Weather on mobile